createdAt,value
2019-05-23T00:00:27.008Z,96293.68
2019-05-23T00:02:54.695Z,96310.98
2019-05-23T00:05:26.229Z,96316.61
2019-05-23T00:07:54.575Z,96296.30
2019-05-23T00:10:29.485Z,96296.30
2019-05-23T00:12:59.673Z,96317.84
2019-05-23T00:15:34.503Z,96317.84
2019-05-23T00:18:03.843Z,96315.72
2019-05-23T00:20:32.548Z,96307.53
2019-05-23T00:23:01.013Z,96309.26
2019-05-23T00:25:28.530Z,96311.19
2019-05-23T00:27:56.755Z,96299.53
2019-05-23T00:30:26.895Z,96315.50
2019-05-23T00:32:59.788Z,96319.37
2019-05-23T00:35:27.647Z,96321.53
2019-05-23T00:37:55.059Z,96320.37
2019-05-23T00:40:22.653Z,96324.83
2019-05-23T00:42:50.056Z,96325.19
2019-05-23T00:45:18.102Z,96328.28
2019-05-23T00:47:46.230Z,96316.58
2019-05-23T00:50:19.180Z,96327.27
2019-05-23T00:52:49.722Z,96324.14
2019-05-23T00:55:17.679Z,96320.06
2019-05-23T00:57:45.307Z,96324.44
2019-05-23T01:00:19.052Z,96329.48
2019-05-23T01:02:47.478Z,96334.73
2019-05-23T01:05:16.193Z,96323.03
2019-05-23T01:07:44.722Z,96333.36
2019-05-23T01:10:14.939Z,96326.33
2019-05-23T01:12:43.907Z,96326.33
2019-05-23T01:15:12.629Z,96322.67
2019-05-23T01:17:40.543Z,96329.48
2019-05-23T01:20:11.470Z,96337.45
2019-05-23T01:22:39.157Z,96337.06
2019-05-23T01:25:08.469Z,96343.52
2019-05-23T01:27:36.940Z,96333.05
2019-05-23T01:30:11.573Z,96347.91
2019-05-23T01:32:42.365Z,96327.05
2019-05-23T01:35:10.747Z,96327.05
2019-05-23T01:37:37.872Z,96348.26
2019-05-23T01:40:06.543Z,96348.26
2019-05-23T01:42:34.588Z,96349.98
2019-05-23T01:45:02.638Z,96354.07
2019-05-23T01:47:30.454Z,96361.68
2019-05-23T01:49:58.897Z,96362.04
2019-05-23T01:52:27.084Z,96362.83
2019-05-23T01:54:54.107Z,96364.19
2019-05-23T01:57:23.535Z,96363.62
2019-05-23T02:00:06.171Z,96362.61
2019-05-23T02:02:22.492Z,96361.03
2019-05-23T02:04:50.236Z,96368.42
2019-05-23T02:07:17.658Z,96374.67
2019-05-23T02:09:45.814Z,96366.11
2019-05-23T02:12:15.091Z,96382.02
2019-05-23T02:14:43.683Z,96385.89
2019-05-23T02:17:13.138Z,96385.67
2019-05-23T02:19:40.607Z,96385.09
2019-05-23T02:22:08.978Z,96384.74
2019-05-23T02:24:36.393Z,96384.74
2019-05-23T02:27:05.043Z,96400.17
2019-05-23T02:29:33.271Z,96401.15
2019-05-23T02:32:02.974Z,96371.70
2019-05-23T02:34:29.978Z,96371.70
2019-05-23T02:36:58.331Z,96396.30
2019-05-23T02:39:39.812Z,96400.17
2019-05-23T02:42:24.716Z,96409.14
2019-05-23T02:44:52.463Z,96403.47
2019-05-23T02:47:32.693Z,96412.27
2019-05-23T02:50:02.032Z,96410.55
2019-05-23T02:52:38.610Z,96387.78
2019-05-23T02:55:24.859Z,96411.34
2019-05-23T02:57:58.617Z,96415.00
2019-05-23T03:00:54.374Z,96397.60
2019-05-23T03:03:24.031Z,96397.60
2019-05-23T03:05:51.767Z,96420.05
2019-05-23T03:08:21.904Z,96421.41
2019-05-23T03:11:01.597Z,96420.84
2019-05-23T03:13:29.644Z,96401.69
2019-05-23T03:15:57.541Z,96401.69
2019-05-23T03:18:26.608Z,96421.59
2019-05-23T03:20:55.316Z,96429.02
2019-05-23T03:23:23.097Z,96419.83
2019-05-23T03:26:04.943Z,96425.86
2019-05-23T03:28:38.615Z,96411.33
2019-05-23T03:31:29.987Z,96411.33
2019-05-23T03:33:49.655Z,96405.00
2019-05-23T03:36:19.298Z,96405.00
2019-05-23T03:38:47.085Z,96398.19
2019-05-23T03:41:14.301Z,96431.19
2019-05-23T03:43:42.021Z,96432.77
2019-05-23T03:46:23.485Z,96416.64
2019-05-23T03:48:52.582Z,96416.64
2019-05-23T03:51:21.012Z,96423.35
2019-05-23T03:53:51.278Z,96423.35
2019-05-23T03:56:19.093Z,96438.61
2019-05-23T03:58:47.357Z,96438.61
2019-05-23T04:01:17.609Z,96435.17
2019-05-23T04:03:44.656Z,96442.20
2019-05-23T04:06:12.399Z,96440.67
2019-05-23T04:08:40.982Z,96437.23
2019-05-23T04:11:08.614Z,96437.23
2019-05-23T04:13:35.755Z,96435.66
2019-05-23T04:16:04.448Z,96442.25
2019-05-23T04:18:32.156Z,96449.07
2019-05-23T04:20:59.425Z,96448.50
2019-05-23T04:23:26.629Z,96439.74
2019-05-23T04:25:54.078Z,96448.93
2019-05-23T04:28:21.396Z,96455.17
2019-05-23T04:30:48.578Z,96463.94
2019-05-23T04:33:16.383Z,96463.94
2019-05-23T04:35:43.940Z,96456.33
2019-05-23T04:38:11.045Z,96456.90
2019-05-23T04:40:38.625Z,96433.83
2019-05-23T04:43:05.972Z,96454.31
2019-05-23T04:45:33.935Z,96455.45
2019-05-23T04:48:01.178Z,96461.48
2019-05-23T04:50:29.106Z,96464.21
2019-05-23T04:52:56.753Z,96437.48
2019-05-23T04:55:24.010Z,96465.39
2019-05-23T04:57:51.656Z,96464.37
2019-05-23T05:00:20.879Z,96481.37
2019-05-23T05:02:48.005Z,96481.37
2019-05-23T05:05:15.707Z,96468.91
2019-05-23T05:07:43.574Z,96495.92
2019-05-23T05:10:16.746Z,96495.92
2019-05-23T05:12:44.341Z,96493.63
2019-05-23T05:15:12.741Z,96503.66
2019-05-23T05:17:40.695Z,96499.86
2019-05-23T05:20:08.955Z,96510.83
2019-05-23T05:22:36.569Z,96515.92
2019-05-23T05:25:05.092Z,96512.98
2019-05-23T05:27:32.277Z,96512.36
2019-05-23T05:29:59.908Z,96516.38
2019-05-23T05:32:43.274Z,96519.84
2019-05-23T05:34:58.435Z,96518.05
2019-05-23T05:37:25.623Z,96525.08
2019-05-23T05:39:53.838Z,96524.29
2019-05-23T05:42:22.156Z,96529.17
2019-05-23T05:44:50.855Z,96531.11
2019-05-23T05:47:19.768Z,96527.95
2019-05-23T05:49:46.952Z,96529.53
2019-05-23T05:52:14.684Z,96501.33
2019-05-23T05:54:42.428Z,96501.33
2019-05-23T05:57:10.265Z,96524.47
2019-05-23T05:59:38.235Z,96533.00
2019-05-23T06:02:07.909Z,96527.47
2019-05-23T06:04:38.684Z,96536.00
2019-05-23T06:07:10.663Z,96537.30
2019-05-23T06:09:38.559Z,96543.59
2019-05-23T06:12:06.031Z,96551.29
2019-05-23T06:14:33.230Z,96555.78
2019-05-23T06:17:04.575Z,96554.85
2019-05-23T06:19:32.423Z,96560.09
2019-05-23T06:21:59.625Z,96564.36
2019-05-23T06:24:42.211Z,96568.81
2019-05-23T06:26:57.399Z,96565.30
2019-05-23T06:29:25.117Z,96572.34
2019-05-23T06:31:53.310Z,96568.29
2019-05-23T06:34:20.813Z,96571.02
2019-05-23T06:36:47.952Z,96568.08
2019-05-23T06:39:16.952Z,96579.52
2019-05-23T06:41:44.309Z,96580.23
2019-05-23T06:44:12.117Z,96591.22
2019-05-23T06:46:39.715Z,96585.13
2019-05-23T06:49:06.817Z,96591.16
2019-05-23T06:51:33.957Z,96596.77
2019-05-23T06:54:00.999Z,96598.12
2019-05-23T06:56:28.151Z,96595.97
2019-05-23T06:58:55.879Z,96606.31
2019-05-23T07:01:22.903Z,96600.59
2019-05-23T07:03:50.323Z,96605.39
2019-05-23T07:06:20.991Z,96608.25
2019-05-23T07:08:48.107Z,96605.88
2019-05-23T07:11:18.909Z,96616.80
2019-05-23T07:13:46.906Z,96613.09
2019-05-23T07:16:14.055Z,96615.38
2019-05-23T07:18:42.085Z,96625.06
2019-05-23T07:21:10.289Z,96622.28
2019-05-23T07:23:37.748Z,96626.30
2019-05-23T07:26:05.174Z,96632.67
2019-05-23T07:28:33.716Z,96635.34
2019-05-23T07:31:01.231Z,96637.41
2019-05-23T07:33:28.322Z,96646.52
2019-05-23T07:35:55.695Z,96644.31
2019-05-23T07:38:23.224Z,96648.18
2019-05-23T07:40:51.029Z,96648.18
2019-05-23T07:43:20.023Z,96648.18
2019-05-23T07:45:57.344Z,96654.08
2019-05-23T07:48:25.917Z,96659.97
2019-05-23T07:50:53.145Z,96662.89
2019-05-23T07:53:32.995Z,96644.16
2019-05-23T07:56:02.167Z,96652.84
2019-05-23T07:58:29.390Z,96677.28
2019-05-23T08:01:01.828Z,96676.27
2019-05-23T08:03:32.537Z,96681.72
2019-05-23T08:06:00.026Z,96681.56
2019-05-23T08:08:27.401Z,96693.70
2019-05-23T08:10:54.872Z,96697.31
2019-05-23T08:13:22.432Z,96696.17
2019-05-23T08:15:50.060Z,96686.41
2019-05-23T08:18:17.559Z,96695.00
2019-05-23T08:20:44.960Z,96695.44
2019-05-23T08:23:13.295Z,96698.61
2019-05-23T08:25:40.518Z,96708.37
2019-05-23T08:28:08.095Z,96712.31
2019-05-23T08:30:36.178Z,96712.69
2019-05-23T08:33:04.608Z,96717.19
2019-05-23T08:35:32.226Z,96716.27
2019-05-23T08:37:59.664Z,96711.13
2019-05-23T08:40:28.838Z,96714.13
2019-05-23T08:42:56.245Z,96713.25
2019-05-23T08:45:23.691Z,96717.52
2019-05-23T08:47:51.097Z,96714.14
2019-05-23T08:50:19.981Z,96715.72
2019-05-23T08:52:47.421Z,96714.00
2019-05-23T08:55:18.960Z,96718.53
2019-05-23T08:57:46.154Z,96723.64
2019-05-23T09:00:14.575Z,96716.08
2019-05-23T09:02:43.421Z,96716.52
2019-05-23T09:05:10.673Z,96721.48
2019-05-23T09:07:37.827Z,96721.19
2019-05-23T09:10:05.505Z,96719.73
2019-05-23T09:12:33.684Z,96721.58
2019-05-23T09:15:00.888Z,96724.61
2019-05-23T09:17:28.419Z,96719.58
2019-05-23T09:19:55.475Z,96723.69
2019-05-23T09:22:22.667Z,96721.88
2019-05-23T09:24:50.352Z,96728.49
2019-05-23T09:27:17.460Z,96736.25
2019-05-23T09:29:44.718Z,96736.61
2019-05-23T09:32:12.473Z,96736.34
2019-05-23T09:34:40.093Z,96737.84
2019-05-23T09:37:08.910Z,96736.25
2019-05-23T09:39:36.215Z,96740.73
2019-05-23T09:42:03.945Z,96734.84
2019-05-23T09:44:31.267Z,96732.81
2019-05-23T09:46:58.650Z,96733.03
2019-05-23T09:49:25.936Z,96740.08
2019-05-23T09:51:57.149Z,96744.97
2019-05-23T09:54:24.307Z,96742.81
2019-05-23T09:56:52.345Z,96743.74
2019-05-23T09:59:19.347Z,96751.31
2019-05-23T10:01:49.124Z,96747.48
2019-05-23T10:04:16.446Z,96753.33
2019-05-23T10:06:46.123Z,96751.36
2019-05-23T10:09:12.971Z,96747.27
2019-05-23T10:11:40.386Z,96754.52
2019-05-23T10:14:09.779Z,96755.63
2019-05-23T10:16:37.259Z,96751.94
2019-05-23T10:19:04.597Z,96753.52
2019-05-23T10:21:31.647Z,96754.66
2019-05-23T10:23:59.124Z,96758.36
2019-05-23T10:26:26.523Z,96756.33
2019-05-23T10:28:53.792Z,96756.47
2019-05-23T10:31:21.177Z,96755.27
2019-05-23T10:33:48.233Z,96751.88
2019-05-23T10:36:15.736Z,96761.56
2019-05-23T10:38:43.763Z,96764.45
2019-05-23T10:41:11.017Z,96768.33
2019-05-23T10:43:38.208Z,96771.77
2019-05-23T10:46:05.555Z,96767.05
2019-05-23T10:48:32.896Z,96767.97
2019-05-23T10:51:00.190Z,96766.16
2019-05-23T10:53:27.418Z,96768.64
2019-05-23T10:55:54.861Z,96770.26
2019-05-23T10:58:22.050Z,96763.66
2019-05-23T11:00:50.334Z,96763.88
2019-05-23T11:03:17.673Z,96762.73
2019-05-23T11:05:45.192Z,96765.45
2019-05-23T11:08:12.330Z,96766.38
2019-05-23T11:10:40.060Z,96768.42
2019-05-23T11:13:07.475Z,96769.37
2019-05-23T11:15:35.070Z,96769.51
2019-05-23T11:18:02.651Z,96765.77
2019-05-23T11:20:30.316Z,96766.91
2019-05-23T11:22:58.478Z,96765.89
2019-05-23T11:25:27.662Z,96773.29
2019-05-23T11:27:55.821Z,96771.00
2019-05-23T11:30:31.363Z,96754.20
2019-05-23T11:32:58.638Z,96775.59
2019-05-23T11:35:26.395Z,96766.64
2019-05-23T11:37:53.619Z,96771.09
2019-05-23T11:40:20.667Z,96771.00
2019-05-23T11:42:47.938Z,96780.11
2019-05-23T11:45:15.980Z,96778.91
2019-05-23T11:47:43.380Z,96781.86
2019-05-23T11:50:11.119Z,96785.16
2019-05-23T11:52:38.859Z,96785.80
2019-05-23T11:55:07.791Z,96785.57
2019-05-23T11:57:37.784Z,96786.94
2019-05-23T12:00:13.130Z,96789.66
2019-05-23T12:02:45.215Z,96793.13
2019-05-23T12:05:14.760Z,96796.20
2019-05-23T12:07:41.908Z,96800.65
2019-05-23T12:10:10.053Z,96798.08
2019-05-23T12:12:37.123Z,96803.45
2019-05-23T12:15:10.529Z,96803.45
2019-05-23T12:17:39.284Z,96804.02
2019-05-23T12:20:08.080Z,96800.05
2019-05-23T12:22:35.441Z,96798.49
2019-05-23T12:25:21.257Z,96796.91
2019-05-23T12:27:35.653Z,96777.84
2019-05-23T12:30:06.685Z,96802.77
2019-05-23T12:32:34.337Z,96801.98
2019-05-23T12:35:11.324Z,96797.67
2019-05-23T12:37:34.890Z,96780.98
2019-05-23T12:40:08.433Z,96801.89
2019-05-23T12:42:35.491Z,96801.89
2019-05-23T12:45:06.387Z,96801.44
2019-05-23T12:47:35.426Z,96798.87
2019-05-23T12:50:07.650Z,96793.03
2019-05-23T12:52:34.479Z,96797.24
2019-05-23T12:55:03.062Z,96797.24
2019-05-23T12:57:30.227Z,96795.44
2019-05-23T12:59:57.863Z,96795.81
2019-05-23T13:02:27.224Z,96795.81
2019-05-23T13:04:54.494Z,96775.00
2019-05-23T13:07:35.553Z,96803.33
2019-05-23T13:09:51.411Z,96787.02
2019-05-23T13:12:18.951Z,96790.31
2019-05-23T13:14:46.060Z,96798.39
2019-05-23T13:17:13.082Z,96802.04
2019-05-23T13:19:40.837Z,96810.22
2019-05-23T13:22:08.908Z,96810.22
2019-05-23T13:24:51.278Z,96810.66
2019-05-23T13:27:05.376Z,96805.44
2019-05-23T13:29:33.540Z,96805.44
2019-05-23T13:32:00.892Z,96787.81
2019-05-23T13:34:28.310Z,96813.84
2019-05-23T13:36:55.275Z,96808.39
2019-05-23T13:39:22.429Z,96809.75
2019-05-23T13:41:49.527Z,96809.75
2019-05-23T13:44:32.651Z,96806.80
2019-05-23T13:46:47.164Z,96813.05
2019-05-23T13:49:15.973Z,96812.48
2019-05-23T13:51:43.125Z,96807.81
2019-05-23T13:54:10.444Z,96809.82
2019-05-23T13:56:37.636Z,96809.82
2019-05-23T13:59:04.719Z,96794.80
2019-05-23T14:01:32.298Z,96819.76
2019-05-23T14:04:00.119Z,96819.19
2019-05-23T14:06:27.582Z,96819.19
2019-05-23T14:08:55.515Z,96822.48
2019-05-23T14:11:22.739Z,96828.31
2019-05-23T14:13:59.198Z,96828.31
2019-05-23T14:16:19.766Z,96829.91
2019-05-23T14:18:47.316Z,96821.50
2019-05-23T14:21:14.540Z,96827.30
2019-05-23T14:23:42.148Z,96830.37
2019-05-23T14:26:11.095Z,96830.37
2019-05-23T14:28:38.338Z,96824.05
2019-05-23T14:31:10.759Z,96824.05
2019-05-23T14:33:41.324Z,96820.88
2019-05-23T14:36:10.550Z,96820.44
2019-05-23T14:38:37.630Z,96824.30
2019-05-23T14:41:05.779Z,96822.94
2019-05-23T14:43:33.079Z,96816.34
2019-05-23T14:46:02.417Z,96828.14
2019-05-23T14:48:48.586Z,96818.00
2019-05-23T14:51:33.919Z,96818.00
2019-05-23T14:54:06.993Z,96829.28
2019-05-23T14:56:35.830Z,96829.28
2019-05-23T14:59:03.812Z,96830.87
2019-05-23T15:01:32.905Z,96835.95
2019-05-23T15:04:00.058Z,96829.70
2019-05-23T15:06:27.480Z,96837.88
2019-05-23T15:08:54.707Z,96840.04
2019-05-23T15:11:21.724Z,96840.04
2019-05-23T15:13:49.510Z,96836.75
2019-05-23T15:16:16.877Z,96836.75
2019-05-23T15:18:44.045Z,96835.16
2019-05-23T15:21:11.545Z,96835.88
2019-05-23T15:23:38.900Z,96835.66
2019-05-23T15:26:21.566Z,96834.98
2019-05-23T15:28:35.388Z,96835.70
2019-05-23T15:31:03.232Z,96835.83
2019-05-23T15:33:30.845Z,96839.24
2019-05-23T15:35:58.679Z,96839.24
2019-05-23T15:38:26.432Z,96834.16
2019-05-23T15:40:53.437Z,96830.98
2019-05-23T15:43:20.515Z,96832.17
2019-05-23T15:45:47.668Z,96832.17
2019-05-23T15:48:14.578Z,96833.88
2019-05-23T15:50:52.101Z,96830.59
2019-05-23T15:53:40.315Z,96831.37
2019-05-23T15:56:27.007Z,96830.24
2019-05-23T15:58:41.010Z,96828.88
2019-05-23T16:01:22.356Z,96831.26
2019-05-23T16:03:54.524Z,96831.26
2019-05-23T16:06:26.510Z,96828.16
2019-05-23T16:08:54.096Z,96831.67
2019-05-23T16:11:21.563Z,96828.16
2019-05-23T16:13:48.789Z,96826.80
2019-05-23T16:16:16.101Z,96823.50
2019-05-23T16:18:43.919Z,96831.67
2019-05-23T16:21:11.593Z,96841.22
2019-05-23T16:23:38.931Z,96841.79
2019-05-23T16:26:05.976Z,96825.98
2019-05-23T16:28:33.104Z,96825.98
2019-05-23T16:31:00.321Z,96846.25
2019-05-23T16:33:27.325Z,96846.59
2019-05-23T16:35:54.858Z,96852.62
2019-05-23T16:38:22.320Z,96848.75
2019-05-23T16:40:49.219Z,96848.75
2019-05-23T16:43:16.978Z,96852.62
2019-05-23T16:45:44.497Z,96856.93
2019-05-23T16:48:11.847Z,96856.93
2019-05-23T16:50:39.111Z,96853.19
2019-05-23T16:53:06.524Z,96851.03
2019-05-23T16:55:33.417Z,96849.66
2019-05-23T16:58:05.018Z,96848.88
2019-05-23T17:00:40.055Z,96851.94
2019-05-23T17:03:07.500Z,96861.26
2019-05-23T17:05:36.626Z,96850.12
2019-05-23T17:08:13.221Z,96846.61
2019-05-23T17:10:42.385Z,96852.44
2019-05-23T17:13:13.911Z,96861.03
2019-05-23T17:15:43.102Z,96853.08
2019-05-23T17:18:28.769Z,96853.08
2019-05-23T17:21:00.199Z,96864.20
2019-05-23T17:23:46.206Z,96865.57
2019-05-23T17:26:27.272Z,96865.57
2019-05-23T17:28:57.198Z,96867.61
2019-05-23T17:31:26.613Z,96866.24
2019-05-23T17:33:53.643Z,96867.61
2019-05-23T17:36:20.960Z,96864.20
2019-05-23T17:38:48.403Z,96862.20
2019-05-23T17:41:15.684Z,96864.70
2019-05-23T17:43:42.952Z,96866.06
2019-05-23T17:46:10.107Z,96860.84
2019-05-23T17:48:37.312Z,96860.23
2019-05-23T17:51:04.459Z,96860.84
2019-05-23T17:53:31.675Z,96866.48
2019-05-23T17:55:58.862Z,96865.84
2019-05-23T17:58:26.122Z,96874.23
2019-05-23T18:00:53.942Z,96869.92
2019-05-23T18:03:21.769Z,96873.56
2019-05-23T18:05:50.484Z,96871.18
2019-05-23T18:08:18.873Z,96872.31
2019-05-23T18:10:47.401Z,96874.05
2019-05-23T18:13:15.537Z,96872.01
2019-05-23T18:15:43.938Z,96875.53
2019-05-23T18:18:11.798Z,96879.39
2019-05-23T18:20:40.162Z,96874.28
2019-05-23T18:23:09.364Z,96872.70
2019-05-23T18:25:37.541Z,96871.33
2019-05-23T18:28:06.889Z,96878.72
2019-05-23T18:30:55.202Z,96872.84
2019-05-23T18:33:24.529Z,96872.61
2019-05-23T18:35:53.021Z,96875.91
2019-05-23T18:38:22.045Z,96875.91
2019-05-23T18:41:02.878Z,96875.91
2019-05-23T18:43:20.895Z,96881.58
2019-05-23T18:45:51.119Z,96885.10
2019-05-23T18:48:19.193Z,96890.89
2019-05-23T18:50:48.293Z,96889.65
2019-05-23T18:53:16.625Z,96891.34
2019-05-23T18:55:44.748Z,96891.92
2019-05-23T18:58:13.031Z,96889.80
2019-05-23T19:01:04.758Z,96901.83
2019-05-23T19:03:33.034Z,96898.31
2019-05-23T19:06:01.725Z,96895.35
2019-05-23T19:08:30.105Z,96905.69
2019-05-23T19:10:58.696Z,96903.19
2019-05-23T19:13:26.818Z,96905.91
2019-05-23T19:15:54.929Z,96910.56
2019-05-23T19:18:24.819Z,96909.77
2019-05-23T19:20:54.754Z,96912.05
2019-05-23T19:23:24.254Z,96916.36
2019-05-23T19:25:52.260Z,96914.08
2019-05-23T19:28:20.541Z,96923.42
2019-05-23T19:30:48.522Z,96913.66
2019-05-23T19:33:16.325Z,96915.02
2019-05-23T19:35:47.408Z,96911.39
2019-05-23T19:38:14.170Z,96912.52
2019-05-23T19:40:41.809Z,96910.17
2019-05-23T19:43:10.009Z,96922.77
2019-05-23T19:45:37.105Z,96920.04
2019-05-23T19:48:04.593Z,96920.04
2019-05-23T19:50:32.400Z,96916.52
2019-05-23T19:52:59.547Z,96919.81
2019-05-23T19:55:27.473Z,96916.86
2019-05-23T19:57:56.122Z,96906.30
2019-05-23T20:00:25.205Z,96920.72
2019-05-23T20:02:56.927Z,96913.68
2019-05-23T20:05:38.093Z,96916.63
2019-05-23T20:08:05.897Z,96913.91
2019-05-23T20:10:33.844Z,96915.05
2019-05-23T20:13:01.277Z,96912.32
2019-05-23T20:15:30.049Z,96912.09
2019-05-23T20:17:57.666Z,96913.45
2019-05-23T20:20:25.072Z,96911.30
2019-05-23T20:22:52.456Z,96910.16
2019-05-23T20:25:20.122Z,96915.84
2019-05-23T20:27:47.544Z,96902.56
2019-05-23T20:30:38.859Z,96903.24
2019-05-23T20:33:06.266Z,96909.14
2019-05-23T20:35:34.021Z,96898.25
2019-05-23T20:38:01.407Z,96903.12
2019-05-23T20:40:29.411Z,96900.03
2019-05-23T20:42:56.865Z,96897.91
2019-05-23T20:45:24.098Z,96897.31
2019-05-23T20:47:51.348Z,96900.83
2019-05-23T20:50:18.496Z,96898.91
2019-05-23T20:52:45.408Z,96898.91
2019-05-23T20:55:12.912Z,96892.23
2019-05-23T20:57:39.964Z,96899.16
2019-05-23T21:00:09.333Z,96900.17
2019-05-23T21:02:36.423Z,96900.75
2019-05-23T21:05:06.368Z,96901.31
2019-05-23T21:07:33.169Z,96892.12
2019-05-23T21:10:00.272Z,96901.42
2019-05-23T21:12:30.363Z,96894.39
2019-05-23T21:14:57.007Z,96891.44
2019-05-23T21:17:25.488Z,96897.68
2019-05-23T21:19:52.364Z,96897.68
2019-05-23T21:22:19.523Z,96895.75
2019-05-23T21:24:46.411Z,96895.52
2019-05-23T21:27:13.749Z,96897.11
2019-05-23T21:29:40.738Z,96897.91
2019-05-23T21:32:08.123Z,96890.42
2019-05-23T21:34:35.543Z,96894.73
2019-05-23T21:37:03.022Z,96903.12
2019-05-23T21:39:30.067Z,96900.27
2019-05-23T21:41:57.163Z,96901.86
2019-05-23T21:44:24.099Z,96899.13
2019-05-23T21:46:51.202Z,96900.03
2019-05-23T21:49:18.456Z,96902.34
2019-05-23T21:51:45.903Z,96899.16
2019-05-23T21:54:13.323Z,96897.80
2019-05-23T21:56:40.240Z,96900.29
2019-05-23T21:59:07.265Z,96904.61
2019-05-23T22:01:39.137Z,96903.58
2019-05-23T22:04:09.407Z,96894.61
2019-05-23T22:06:44.353Z,96898.47
2019-05-23T22:09:13.550Z,96888.71
2019-05-23T22:11:40.744Z,96896.12
2019-05-23T22:14:07.835Z,96896.69
2019-05-23T22:16:34.939Z,96892.60
2019-05-23T22:19:03.388Z,96892.38
2019-05-23T22:21:30.913Z,96888.41
2019-05-23T22:23:57.976Z,96891.46
2019-05-23T22:26:25.623Z,96895.09
2019-05-23T22:28:52.782Z,96889.22
2019-05-23T22:31:20.596Z,96884.68
2019-05-23T22:34:06.182Z,96887.41
2019-05-23T22:36:33.656Z,96878.52
2019-05-23T22:39:01.195Z,96884.67
2019-05-23T22:41:28.815Z,96883.08
2019-05-23T22:43:55.825Z,96884.78
2019-05-23T22:46:22.928Z,96885.34
2019-05-23T22:48:50.077Z,96885.69
2019-05-23T22:51:17.198Z,96873.66
2019-05-23T22:53:44.226Z,96872.53
2019-05-23T22:56:11.195Z,96870.60
2019-05-23T22:58:38.690Z,96875.14
2019-05-23T23:01:06.142Z,96867.20
2019-05-23T23:03:34.013Z,96863.13
2019-05-23T23:06:01.219Z,96867.44
2019-05-23T23:08:29.273Z,96863.55
2019-05-23T23:10:56.697Z,96862.19
2019-05-23T23:13:37.722Z,96864.56
2019-05-23T23:15:53.031Z,96864.26
2019-05-23T23:18:20.418Z,96872.99
2019-05-23T23:20:47.457Z,96869.14
2019-05-23T23:23:14.630Z,96866.19
2019-05-23T23:25:41.975Z,96869.94
2019-05-23T23:28:09.184Z,96869.03
2019-05-23T23:30:41.128Z,96865.51
2019-05-23T23:33:08.240Z,96862.41
2019-05-23T23:35:35.939Z,96865.73
2019-05-23T23:38:03.677Z,96861.05
2019-05-23T23:40:32.224Z,96867.30
2019-05-23T23:42:59.269Z,96867.86
2019-05-23T23:45:44.955Z,96868.88
2019-05-23T23:48:30.750Z,96868.66
2019-05-23T23:51:16.859Z,96867.18
2019-05-23T23:54:02.406Z,96867.18
2019-05-23T23:56:47.963Z,96859.23
2019-05-23T23:59:15.189Z,96860.83
